Time;durP1;ratioP1;P1;durP2;ratioP2;P2;SDS_P1;SDS_P2;PMS_P1;PMS_P2;Temp;Humidity;BMP_temperature;BMP_pressure;BME280_temperature;BME280_humidity;BME280_pressure;Samples;Min_cycle;Max_cycle;Signal;HPM_P1;HPM_P2
2023/04/19 00:04:28;;;;;;;9.93;6.18;;;;;;;6.70;100.00;102998.66;10295781;28;20031;-81
2023/04/19 00:09:29;;;;;;;10.02;7.05;;;;;;;6.52;100.00;102980.59;10277489;28;20039;-79
2023/04/19 00:14:30;;;;;;;12.32;6.70;;;;;;;6.52;100.00;102996.16;10241963;28;20039;-78
2023/04/19 00:19:30;;;;;;;12.57;7.05;;;;;;;6.47;100.00;102999.44;10267473;28;20039;-79
2023/04/19 00:24:30;;;;;;;11.93;7.07;;;;;;;6.48;100.00;103001.13;10236669;28;20051;-80
2023/04/19 00:29:31;;;;;;;10.95;7.00;;;;;;;6.54;100.00;103016.00;10254027;28;20058;-80
2023/04/19 00:34:31;;;;;;;12.60;6.97;;;;;;;6.53;100.00;103003.34;10252811;28;20047;-80
2023/04/19 00:39:32;;;;;;;13.55;7.57;;;;;;;6.45;100.00;103001.50;10252595;28;20055;-80
2023/04/19 00:44:32;;;;;;;14.02;8.02;;;;;;;6.42;100.00;103004.56;10252162;28;20039;-82
2023/04/19 00:49:33;;;;;;;16.10;9.27;;;;;;;6.31;100.00;102991.28;10250925;28;20035;-82
2023/04/19 00:54:33;;;;;;;12.30;7.95;;;;;;;6.31;100.00;102999.47;10253677;28;20034;-79
2023/04/19 00:59:34;;;;;;;15.35;9.38;;;;;;;6.22;100.00;102993.13;10275611;28;20043;-79
2023/04/19 01:04:34;;;;;;;13.07;8.90;;;;;;;6.13;100.00;102989.56;10276150;28;20027;-79
2023/04/19 01:09:39;;;;;;;14.93;9.70;;;;;;;6.13;100.00;103003.25;10274058;28;20073;-79
2023/04/19 01:14:40;;;;;;;15.13;9.50;;;;;;;6.10;100.00;103016.41;10273902;28;20066;-79
2023/04/19 01:19:41;;;;;;;16.77;10.35;;;;;;;6.05;100.00;103016.91;10257907;28;20055;-79
2023/04/19 01:24:41;;;;;;;18.13;10.15;;;;;;;5.91;100.00;102999.28;10256666;28;20047;-79
2023/04/19 01:29:42;;;;;;;18.85;10.63;;;;;;;5.91;100.00;103009.38;10290816;28;20048;-79
2023/04/19 01:34:43;;;;;;;20.50;11.25;;;;;;;5.73;100.00;103001.34;10259218;28;20062;-82
2023/04/19 01:39:43;;;;;;;15.18;9.95;;;;;;;5.66;100.00;103014.81;10231171;28;20051;-82
2023/04/19 01:44:44;;;;;;;18.38;10.20;;;;;;;5.61;100.00;102998.09;10247700;28;20039;-84
2023/04/19 01:49:44;;;;;;;16.83;9.50;;;;;;;5.59;100.00;103008.34;10250204;28;20456;-83
2023/04/19 01:54:45;;;;;;;15.45;9.48;;;;;;;5.58;100.00;103014.81;10248794;28;20066;-82
2023/04/19 01:59:45;;;;;;;18.15;10.15;;;;;;;5.54;100.00;103013.44;10249846;28;20047;-82
2023/04/19 02:04:46;;;;;;;15.40;10.50;;;;;;;5.49;100.00;103004.91;10251204;28;20032;-83
2023/04/19 02:09:46;;;;;;;13.32;7.90;;;;;;;5.46;100.00;103012.41;10263678;28;20047;-83
2023/04/19 02:14:47;;;;;;;14.02;8.07;;;;;;;5.41;100.00;103003.84;10248839;28;20028;-82
2023/04/19 02:19:47;;;;;;;11.23;6.45;;;;;;;5.34;100.00;102994.63;10214849;28;20114;-82
2023/04/19 02:24:51;;;;;;;13.07;7.63;;;;;;;5.21;100.00;102984.19;10249266;28;20043;-81
2023/04/19 02:29:51;;;;;;;10.75;6.88;;;;;;;5.28;100.00;103003.50;10217272;28;20046;-80
2023/04/19 02:34:52;;;;;;;13.25;6.95;;;;;;;5.09;100.00;102966.41;10233924;28;20039;-79
2023/04/19 02:39:52;;;;;;;12.48;6.25;;;;;;;5.12;100.00;102981.59;10259743;28;20102;-82
2023/04/19 02:44:53;;;;;;;12.95;6.55;;;;;;;5.18;100.00;103002.78;10279016;28;20046;-81
2023/04/19 02:49:53;;;;;;;12.02;7.35;;;;;;;4.93;100.00;102983.59;10279647;28;20035;-81
2023/04/19 02:54:54;;;;;;;11.63;7.35;;;;;;;4.98;100.00;103008.53;10262946;28;20046;-81
2023/04/19 02:59:54;;;;;;;10.63;6.88;;;;;;;4.77;100.00;102983.53;10297881;28;20043;-82
2023/04/19 03:04:54;;;;;;;12.52;6.72;;;;;;;4.69;100.00;102983.50;10279684;28;20048;-81
2023/04/19 03:09:55;;;;;;;11.68;6.75;;;;;;;4.74;100.00;103011.16;10265744;28;20632;-82
2023/04/19 03:14:55;;;;;;;12.88;6.93;;;;;;;4.65;100.00;103002.03;10237173;28;20039;-81
2023/04/19 03:19:56;;;;;;;9.23;5.97;;;;;;;4.50;100.00;102988.16;10237411;28;20054;-83
2023/04/19 03:24:56;;;;;;;10.00;6.15;;;;;;;4.52;100.00;103010.69;10238202;28;20114;-82
2023/04/19 03:29:57;;;;;;;12.43;6.65;;;;;;;4.29;100.00;102993.16;10238369;28;20047;-81
2023/04/19 03:34:57;;;;;;;11.43;6.75;;;;;;;4.33;100.00;103017.22;10253830;28;20051;-82
2023/04/19 03:39:58;;;;;;;10.38;5.88;;;;;;;4.28;100.00;103018.72;10252868;28;20083;-82
2023/04/19 03:44:58;;;;;;;9.57;6.18;;;;;;;4.09;100.00;103001.53;10241384;28;20039;-83
2023/04/19 03:49:59;;;;;;;8.93;6.15;;;;;;;4.09;100.00;103011.59;10235658;28;20023;-82
2023/04/19 03:54:59;;;;;;;9.82;6.20;;;;;;;4.06;100.00;103012.78;10254748;28;20039;-78
2023/04/19 04:00:00;;;;;;;10.02;6.18;;;;;;;3.99;100.00;103017.13;10237614;28;20159;-80
2023/04/19 04:05:00;;;;;;;14.25;6.70;;;;;;;3.98;100.00;103031.78;10269482;28;20035;-81
2023/04/19 04:10:01;;;;;;;9.80;5.78;;;;;;;3.89;100.00;103024.56;10280715;28;20062;-82
2023/04/19 04:15:01;;;;;;;10.02;6.00;;;;;;;3.81;100.00;103028.91;10238104;28;20070;-82
2023/04/19 04:20:02;;;;;;;11.82;6.50;;;;;;;3.76;100.00;103017.66;10251468;28;20062;-82
2023/04/19 04:25:03;;;;;;;10.93;6.70;;;;;;;3.65;100.00;103020.59;10267915;28;20141;-83
2023/04/19 04:30:05;;;;;;;9.15;5.60;;;;;;;3.54;100.00;103016.22;10253983;28;20035;-81
2023/04/19 04:35:06;;;;;;;10.23;6.22;;;;;;;3.60;100.00;103022.94;10251227;28;20070;-81
2023/04/19 04:40:07;;;;;;;10.95;5.40;;;;;;;3.56;100.00;103018.81;10254187;28;20045;-80
2023/04/19 04:45:09;;;;;;;10.88;5.95;;;;;;;3.54;100.00;103018.13;10258530;28;20050;-82
2023/04/19 04:50:10;;;;;;;12.82;5.22;;;;;;;3.64;100.00;103040.69;10289613;28;20050;-82
2023/04/19 04:55:10;;;;;;;10.98;5.32;;;;;;;3.63;100.00;103028.91;10273447;28;20038;-78
2023/04/19 05:00:11;;;;;;;12.75;5.60;;;;;;;3.69;100.00;103032.88;10257997;28;21000;-80
2023/04/19 05:05:12;;;;;;;12.68;5.75;;;;;;;3.67;100.00;103023.16;10252907;28;20035;-81
2023/04/19 05:10:12;;;;;;;7.57;4.45;;;;;;;3.69;100.00;103021.13;10248646;28;20046;-81
2023/04/19 05:15:13;;;;;;;8.73;4.68;;;;;;;3.81;100.00;103042.53;10256993;28;20038;-81
2023/04/19 05:20:13;;;;;;;8.68;4.80;;;;;;;3.75;100.00;103018.63;10256915;28;20051;-82
2023/04/19 05:25:14;;;;;;;7.70;4.63;;;;;;;3.96;100.00;103036.53;10273846;28;20141;-81
2023/04/19 05:30:14;;;;;;;8.50;4.55;;;;;;;3.99;100.00;103036.22;10291510;28;20054;-81
2023/04/19 05:35:15;;;;;;;12.25;5.82;;;;;;;4.00;100.00;103032.47;10289751;28;20058;-81
2023/04/19 05:40:16;;;;;;;7.93;4.38;;;;;;;4.19;100.00;103040.47;10270819;28;20062;-80
2023/04/19 05:45:17;;;;;;;7.57;4.40;;;;;;;4.42;100.00;103039.94;10239325;28;20395;-79
2023/04/19 05:50:19;;;;;;;8.60;4.60;;;;;;;4.72;100.00;103038.59;10270818;28;20047;-76
2023/04/19 05:55:19;;;;;;;6.80;3.70;;;;;;;5.08;100.00;103043.03;10288798;28;20050;-76
2023/04/19 06:00:20;;;;;;;9.32;4.53;;;;;;;5.37;100.00;103046.19;10273870;28;20047;-79
2023/04/19 06:05:20;;;;;;;8.75;4.85;;;;;;;5.60;100.00;103035.50;10272397;28;20031;-79
2023/04/19 06:10:22;;;;;;;9.32;4.30;;;;;;;5.81;100.00;103031.44;10264020;28;20099;-80
2023/04/19 06:15:24;;;;;;;8.38;4.88;;;;;;;6.14;100.00;103046.00;10220599;28;20038;-81
2023/04/19 06:20:25;;;;;;;10.77;4.65;;;;;;;6.39;100.00;103035.03;10280148;28;20090;-79
2023/04/19 06:25:25;;;;;;;9.38;3.80;;;;;;;6.69;100.00;103027.94;10279988;28;20451;-79
2023/04/19 06:30:26;;;;;;;8.20;4.03;;;;;;;7.02;100.00;103031.41;10264855;28;20422;-78
2023/04/19 06:35:26;;;;;;;8.40;4.18;;;;;;;7.30;100.00;103033.69;10264018;28;20035;-80
2023/04/19 06:40:30;;;;;;;4.60;3.15;;;;;;;7.66;100.00;103005.69;10273587;28;20039;-78
2023/04/19 06:45:31;;;;;;;5.93;3.17;;;;;;;7.80;100.00;103001.31;10270367;28;20035;-80
2023/04/19 06:50:31;;;;;;;6.30;3.67;;;;;;;7.78;100.00;102971.31;10255414;28;20043;-81
2023/04/19 06:55:32;;;;;;;5.95;3.22;;;;;;;8.24;100.00;102987.69;10270594;28;20070;-79
2023/04/19 07:00:32;;;;;;;5.78;3.08;;;;;;;8.47;100.00;102992.28;10278418;28;20066;-80
2023/04/19 07:05:33;;;;;;;6.13;3.13;;;;;;;8.55;100.00;102983.97;10277330;28;20038;-82
2023/04/19 07:10:33;;;;;;;5.30;2.92;;;;;;;8.80;100.00;102997.41;10246677;28;20061;-81
2023/04/19 07:15:33;;;;;;;6.40;2.83;;;;;;;8.92;100.00;103001.38;10255885;28;20042;-80
2023/04/19 07:20:34;;;;;;;5.05;2.50;;;;;;;8.97;100.00;102987.94;10283166;28;20053;-81
2023/04/19 07:25:34;;;;;;;7.03;2.03;;;;;;;8.98;100.00;102977.78;10291990;28;20049;-81
2023/04/19 07:30:35;;;;;;;5.00;1.75;;;;;;;9.17;100.00;102965.31;10261219;28;20046;-81
2023/04/19 07:35:38;;;;;;;2.55;1.58;;;;;;;9.33;100.00;102950.50;10275694;28;20070;-82
2023/04/19 07:40:38;;;;;;;4.90;1.90;;;;;;;9.58;100.00;102956.44;10259653;28;20057;-82
2023/04/19 07:45:39;;;;;;;4.97;1.85;;;;;;;9.74;100.00;102961.69;10292792;28;20434;-84
2023/04/19 07:50:40;;;;;;;3.55;1.55;;;;;;;9.76;100.00;102967.00;10255755;28;20050;-83
2023/04/19 07:55:40;;;;;;;3.03;1.48;;;;;;;9.90;100.00;102960.53;10293081;28;20526;-80
2023/04/19 08:00:40;;;;;;;2.85;1.50;;;;;;;10.14;100.00;102967.50;10255943;28;20758;-80
2023/04/19 08:05:41;;;;;;;5.13;1.38;;;;;;;10.20;100.00;102958.44;10271425;28;20077;-83
2023/04/19 08:10:42;;;;;;;3.65;1.45;;;;;;;10.29;100.00;102957.28;10258085;28;20043;-83
2023/04/19 08:15:42;;;;;;;3.15;1.30;;;;;;;10.42;100.00;102958.44;10245002;28;20051;-81
2023/04/19 08:20:45;;;;;;;2.42;1.30;;;;;;;10.73;99.25;102959.84;10272884;28;20069;-81
2023/04/19 08:25:45;;;;;;;1.80;1.27;;;;;;;10.93;98.31;102948.94;10242697;28;20049;-81
2023/04/19 08:30:46;;;;;;;3.95;1.75;;;;;;;11.10;99.15;102945.59;10258776;28;20450;-93
2023/04/19 08:35:46;;;;;;;2.88;1.25;;;;;;;11.19;96.12;102920.59;10251980;28;20495;-83
2023/04/19 08:40:50;;;;;;;3.53;1.80;;;;;;;11.31;93.95;102910.66;10253953;28;20061;-82
2023/04/19 08:45:51;;;;;;;2.63;1.27;;;;;;;11.61;90.49;102929.56;10275473;28;20045;-85
2023/04/19 08:50:51;;;;;;;2.08;1.10;;;;;;;11.68;88.27;102903.69;10257268;28;20035;-82
2023/04/19 08:55:57;;;;;;;2.10;1.00;;;;;;;11.89;85.68;102899.88;10275122;28;20027;-81
2023/04/19 09:00:58;;;;;;;4.00;1.43;;;;;;;11.95;84.05;102898.19;10275096;28;20043;-81
2023/04/19 09:05:59;;;;;;;5.85;1.10;;;;;;;12.08;80.11;102873.31;10291817;28;20034;-84
2023/04/19 09:11:00;;;;;;;2.33;1.25;;;;;;;12.18;80.24;102885.84;10244906;28;20043;-86
2023/04/19 09:16:01;;;;;;;1.52;1.00;;;;;;;12.39;79.00;102881.94;10247494;28;20511;-82
2023/04/19 09:21:01;;;;;;;1.75;0.90;;;;;;;12.54;78.64;102865.09;10272462;28;20077;-81
2023/04/19 09:26:03;;;;;;;4.30;1.45;;;;;;;12.40;75.66;102861.53;10242799;28;20035;-81
2023/04/19 09:31:12;;;;;;;2.50;1.13;;;;;;;12.62;74.46;102849.13;10256836;28;20035;-84
2023/04/19 09:36:29;;;;;;;2.50;1.40;;;;;;;12.92;75.51;102840.25;10287783;28;20031;-85
2023/04/19 09:41:31;;;;;;;2.92;1.00;;;;;;;13.19;73.15;102854.75;10287898;28;20047;-90
2023/04/19 09:46:33;;;;;;;2.65;1.30;;;;;;;13.28;71.28;102841.50;10240207;28;20045;-87
2023/04/19 09:51:41;;;;;;;2.47;1.30;;;;;;;13.27;67.83;102812.13;10290078;28;20094;-76
2023/04/19 09:56:41;;;;;;;2.78;0.90;;;;;;;13.49;68.93;102821.75;10273065;28;20074;-77
2023/04/19 10:01:57;;;;;;;1.85;0.80;;;;;;;13.53;67.21;102809.16;10241064;28;20549;-87
2023/04/19 10:06:58;;;;;;;3.97;0.90;;;;;;;13.68;67.31;102810.72;10258278;28;20078;-75
2023/04/19 10:11:58;;;;;;;5.57;1.02;;;;;;;13.90;68.99;102820.28;10254870;28;20085;-76
2023/04/19 10:16:59;;;;;;;5.68;2.15;;;;;;;14.01;69.51;102809.53;10257798;28;20034;-86
2023/04/19 10:22:01;;;;;;;4.43;1.00;;;;;;;14.16;66.61;102811.91;10240452;28;20039;-80
2023/04/19 10:27:11;;;;;;;3.80;0.80;;;;;;;14.07;67.91;102805.84;10289446;28;20035;-81
2023/04/19 10:32:12;;;;;;;4.45;1.40;;;;;;;13.99;65.68;102778.47;10256614;28;20370;-81
2023/04/19 10:37:13;;;;;;;1.67;0.88;;;;;;;14.04;65.74;102768.38;10288951;28;20046;-78
2023/04/19 10:42:13;;;;;;;3.30;0.90;;;;;;;14.23;65.87;102788.59;10222358;28;20040;-78
2023/04/19 10:47:14;;;;;;;2.28;0.95;;;;;;;14.33;64.67;102754.81;10249087;28;20572;-78
2023/04/19 10:52:28;;;;;;;2.45;1.00;;;;;;;14.51;63.73;102762.22;10260996;28;20090;-80
2023/04/19 10:57:50;;;;;;;2.47;1.30;;;;;;;14.51;64.95;102771.41;10249760;28;20058;-79
2023/04/19 11:02:50;;;;;;;6.15;1.65;;;;;;;14.65;66.30;102763.75;10278204;28;20042;-80
2023/04/19 11:07:51;;;;;;;1.90;1.00;;;;;;;14.95;65.77;102754.56;10295906;28;20046;-80
2023/04/19 11:12:51;;;;;;;2.95;1.45;;;;;;;15.09;64.53;102731.09;10265016;28;20046;-77
2023/04/19 11:17:52;;;;;;;2.47;1.33;;;;;;;15.01;66.29;102723.13;10258878;28;20042;-78
2023/04/19 11:22:53;;;;;;;2.55;1.40;;;;;;;15.14;65.92;102733.13;10270830;28;20064;-77
2023/04/19 11:27:54;;;;;;;2.13;1.50;;;;;;;15.39;64.88;102730.13;10276865;28;20121;-85
2023/04/19 11:32:55;;;;;;;4.20;1.30;;;;;;;15.77;66.30;102731.56;10260549;28;20038;-79
2023/04/19 11:37:57;;;;;;;2.58;1.60;;;;;;;15.76;63.75;102707.66;10268566;28;20499;-76
2023/04/19 11:43:01;;;;;;;2.45;1.58;;;;;;;15.78;62.27;102705.50;10273709;28;20055;-80
2023/04/19 11:48:06;;;;;;;2.33;1.73;;;;;;;15.75;61.68;102683.78;10259714;28;20035;-79
2023/04/19 11:53:16;;;;;;;3.08;1.73;;;;;;;15.91;63.79;102693.25;10273823;28;20031;-72
2023/04/19 11:58:55;;;;;;;3.38;1.88;;;;;;;16.26;64.27;102684.78;10274963;28;20062;-78
2023/04/19 12:03:56;;;;;;;5.47;1.88;;;;;;;16.50;63.91;102656.88;10167933;28;20162;-77
2023/04/19 12:08:56;;;;;;;2.97;1.40;;;;;;;16.41;63.10;102659.22;10292501;28;20534;-76
2023/04/19 12:14:10;;;;;;;4.68;1.42;;;;;;;17.00;61.76;102656.06;10257851;28;20030;-76
2023/04/19 12:19:12;;;;;;;2.10;1.60;;;;;;;17.19;60.38;102648.28;10256878;28;20047;-78
2023/04/19 12:24:16;;;;;;;4.53;1.60;;;;;;;17.45;60.82;102646.72;10291098;28;20290;-76
2023/04/19 12:29:16;;;;;;;9.10;2.03;;;;;;;18.03;58.96;102638.81;10275107;28;20088;-75
2023/04/19 12:34:17;;;;;;;3.67;1.50;;;;;;;18.68;59.73;102622.13;10291359;28;20038;-75
2023/04/19 12:39:17;;;;;;;4.45;1.60;;;;;;;18.81;59.15;102626.44;10258396;28;20057;-74
2023/04/19 12:44:18;;;;;;;2.35;1.80;;;;;;;18.18;58.28;102615.00;10286895;28;20070;-79
2023/04/19 12:49:21;;;;;;;4.22;2.13;;;;;;;17.90;59.24;102615.00;10257374;28;20039;-78
2023/04/19 12:54:21;;;;;;;2.13;1.40;;;;;;;18.48;58.42;102608.84;10288230;28;20038;-80
2023/04/19 12:59:22;;;;;;;2.78;1.50;;;;;;;18.24;55.32;102586.91;10275393;28;20042;-83
2023/04/19 13:04:23;;;;;;;8.52;1.58;;;;;;;17.42;53.89;102544.19;10259161;28;20050;-90
2023/04/19 13:09:23;;;;;;;2.08;1.23;;;;;;;18.27;54.68;102575.25;10241875;28;20038;-75
2023/04/19 13:14:27;;;;;;;6.18;1.98;;;;;;;18.63;53.21;102547.63;10233989;28;20039;-77
2023/04/19 13:19:28;;;;;;;3.05;1.45;;;;;;;19.29;52.17;102560.31;10271179;28;20042;-75
2023/04/19 13:24:28;;;;;;;3.28;1.50;;;;;;;19.66;51.76;102562.13;10275631;28;20026;-77
2023/04/19 13:29:29;;;;;;;4.18;1.45;;;;;;;20.15;49.87;102542.09;10272615;28;20039;-76
2023/04/19 13:34:29;;;;;;;2.50;1.40;;;;;;;20.59;49.74;102527.59;10291200;28;20035;-80
2023/04/19 13:39:30;;;;;;;2.53;1.50;;;;;;;20.53;49.54;102525.88;10260044;28;20047;-76
2023/04/19 13:44:31;;;;;;;3.67;1.45;;;;;;;21.16;48.44;102501.06;10283834;28;20042;-76
2023/04/19 13:49:31;;;;;;;4.43;1.83;;;;;;;20.48;47.21;102525.88;10272516;28;20096;-76
2023/04/19 13:54:32;;;;;;;3.15;1.58;;;;;;;20.57;48.28;102521.41;10272180;28;20046;-76
2023/04/19 13:59:32;;;;;;;2.22;1.27;;;;;;;20.88;46.38;102497.00;10270815;28;20053;-77
2023/04/19 14:04:32;;;;;;;2.65;1.70;;;;;;;20.79;45.58;102495.91;10290189;28;20108;-76
2023/04/19 14:09:33;;;;;;;4.65;1.70;;;;;;;20.83;45.10;102468.19;10275838;28;20031;-83
2023/04/19 14:14:33;;;;;;;7.28;1.40;;;;;;;20.66;45.04;102497.34;10224079;28;20032;-79
2023/04/19 14:19:34;;;;;;;2.45;1.48;;;;;;;20.36;45.00;102493.44;10300316;28;20054;-79
2023/04/19 14:24:35;;;;;;;5.07;1.60;;;;;;;19.68;46.02;102479.72;10271314;28;20470;-75
2023/04/19 14:29:35;;;;;;;3.13;1.45;;;;;;;19.76;44.58;102472.75;10230118;28;20058;-78
2023/04/19 14:34:35;;;;;;;2.95;1.60;;;;;;;19.68;43.99;102468.53;10255127;28;20055;-78
2023/04/19 14:39:36;;;;;;;2.00;1.30;;;;;;;19.77;43.80;102452.06;10243268;28;20137;-78
2023/04/19 14:44:36;;;;;;;3.65;1.60;;;;;;;19.53;42.90;102421.88;10236960;28;20032;-82
2023/04/19 14:49:37;;;;;;;1.55;1.25;;;;;;;19.38;43.05;102413.44;10237792;28;20082;-87
2023/04/19 15:00:39;;;;;;;5.00;1.50;;;;;;;19.98;42.88;102426.94;10245044;28;20061;-83
2023/04/19 15:05:39;;;;;;;1.73;1.27;;;;;;;20.25;42.76;102421.84;10244612;28;20082;-83
2023/04/19 15:10:40;;;;;;;2.13;1.25;;;;;;;20.30;41.67;102433.03;10227979;28;20043;-81
2023/04/19 15:15:40;;;;;;;3.03;1.60;;;;;;;20.64;41.51;102415.63;10235186;28;20070;-89
2023/04/19 15:20:41;;;;;;;2.35;1.35;;;;;;;20.08;41.64;102401.75;10253975;28;20043;-82
2023/04/19 15:25:42;;;;;;;6.53;1.50;;;;;;;20.06;41.16;102392.81;10237367;28;20079;-76
2023/04/19 15:30:42;;;;;;;1.80;1.30;;;;;;;19.82;42.60;102401.75;10255107;28;20067;-81
2023/04/19 15:35:43;;;;;;;3.03;1.30;;;;;;;20.83;41.34;102412.19;10226347;28;20516;-79
2023/04/19 15:40:43;;;;;;;6.43;1.85;;;;;;;21.17;41.76;102415.94;10246734;28;20071;-89
2023/04/19 15:45:44;;;;;;;4.32;1.60;;;;;;;21.23;40.60;102388.75;10215631;28;20130;-86
2023/04/19 15:50:44;;;;;;;2.13;1.38;;;;;;;22.06;38.35;102405.78;10253836;28;20039;-83
2023/04/19 15:55:48;;;;;;;3.40;1.40;;;;;;;21.65;38.86;102389.31;10238241;28;20042;-79
2023/04/19 16:00:48;;;;;;;5.63;1.67;;;;;;;21.39;39.78;102395.06;10253947;28;20056;-81
2023/04/19 16:05:50;;;;;;;4.80;1.63;;;;;;;21.24;37.84;102386.78;10237342;28;20043;-76
2023/04/19 16:10:50;;;;;;;4.50;1.30;;;;;;;20.94;37.93;102385.84;10205735;28;20046;-78
2023/04/19 16:15:51;;;;;;;2.92;1.70;;;;;;;21.32;37.31;102398.22;10234194;28;20039;-77
2023/04/19 16:20:54;;;;;;;3.30;1.20;;;;;;;20.96;37.99;102401.22;10244005;28;20109;-74
2023/04/19 16:25:55;;;;;;;2.83;1.30;;;;;;;21.30;38.12;102397.66;10292807;28;20398;-80
2023/04/19 16:30:55;;;;;;;3.05;1.60;;;;;;;21.39;36.53;102380.22;10244417;28;20042;-79
2023/04/19 16:35:56;;;;;;;4.30;1.63;;;;;;;20.67;35.02;102369.44;10203908;28;20056;-75
2023/04/19 16:40:59;;;;;;;5.53;1.92;;;;;;;20.39;36.51;102382.94;10190675;29;20048;-76
2023/04/19 16:45:59;;;;;;;3.60;1.90;;;;;;;19.99;37.22;102392.25;10212643;29;20039;-75
2023/04/19 16:51:00;;;;;;;4.95;2.20;;;;;;;19.39;39.24;102401.16;10178860;29;20032;-76
2023/04/19 16:56:02;;;;;;;2.90;1.80;;;;;;;18.91;38.31;102378.16;10174768;29;20043;-76
2023/04/19 17:01:02;;;;;;;4.60;2.28;;;;;;;18.02;39.60;102399.41;10174124;29;20035;-76
2023/04/19 17:06:03;;;;;;;3.72;2.10;;;;;;;17.87;40.50;102408.50;10173842;29;20040;-75
2023/04/19 17:11:04;;;;;;;8.60;2.50;;;;;;;17.19;41.17;102405.31;10170284;29;20032;-76
2023/04/19 17:16:05;;;;;;;4.03;2.63;;;;;;;15.94;42.75;102413.06;10176956;29;20054;-77
2023/04/19 17:21:05;;;;;;;5.53;2.50;;;;;;;15.56;44.78;102424.03;10188093;29;20345;-76
2023/04/19 17:26:06;;;;;;;4.80;2.38;;;;;;;15.10;44.92;102424.84;10194437;29;20039;-71
2023/04/19 17:31:07;;;;;;;4.35;2.35;;;;;;;14.04;46.74;102357.69;10158976;28;20146;-75
2023/04/19 17:36:08;;;;;;;2.88;2.00;;;;;;;13.66;47.76;102417.09;10162308;28;20127;-76
2023/04/19 17:41:14;;;;;;;7.88;2.13;;;;;;;13.21;49.80;102470.06;10191932;28;20047;-75
2023/04/19 17:46:17;;;;;;;;;;;;;;;12.47;51.89;102478.38;10195880;28;20051;-74
2023/04/19 17:51:18;;;;;;;3.03;1.80;;;;;;;11.96;52.76;102462.91;10223037;28;19919;-73
2023/04/19 17:56:18;;;;;;;2.17;1.20;;;;;;;11.56;52.31;102468.69;10177522;28;20115;-74
2023/04/19 18:01:19;;;;;;;2.28;1.33;;;;;;;11.19;52.95;102463.81;10239259;28;20044;-76
2023/04/19 18:06:20;;;;;;;3.60;1.30;;;;;;;10.89;52.50;102472.63;10246807;28;20051;-75
2023/04/19 18:11:21;;;;;;;5.25;1.83;;;;;;;10.67;52.66;102466.53;10203392;28;20067;-76
2023/04/19 18:16:22;;;;;;;7.13;1.85;;;;;;;10.06;53.33;102400.75;10236015;28;20044;-76
2023/04/19 18:21:22;;;;;;;1.98;1.17;;;;;;;10.45;55.73;102495.41;10220645;28;20040;-74
2023/04/19 18:26:23;;;;;;;2.45;1.30;;;;;;;10.25;54.84;102511.91;10224081;28;20055;-76
2023/04/19 18:31:23;;;;;;;3.55;1.85;;;;;;;10.02;55.83;102524.16;10206026;28;20036;-76
2023/04/19 18:36:24;;;;;;;4.55;1.55;;;;;;;9.82;56.00;102524.16;10200329;29;20040;-75
2023/04/19 18:41:25;;;;;;;5.00;1.92;;;;;;;9.56;55.27;102504.84;10143983;29;20051;-75
2023/04/19 18:46:25;;;;;;;5.15;1.27;;;;;;;9.50;54.67;102525.75;10171324;29;20055;-75
2023/04/19 18:51:26;;;;;;;4.15;1.73;;;;;;;9.29;56.89;102535.00;10171316;29;20051;-75
2023/04/19 18:56:27;;;;;;;7.35;1.80;;;;;;;9.13;55.97;102543.59;10172308;29;20059;-76
2023/04/19 19:01:28;;;;;;;2.85;1.55;;;;;;;8.84;57.86;102531.81;10158220;29;20040;-76
2023/04/19 19:06:29;;;;;;;5.53;1.80;;;;;;;8.80;57.73;102555.22;10202251;29;20039;-74
2023/04/19 19:11:30;;;;;;;3.45;1.60;;;;;;;8.60;57.92;102553.19;10167868;29;20040;-71
2023/04/19 19:16:30;;;;;;;3.60;1.70;;;;;;;8.48;57.42;102554.81;10221350;28;20063;-74
2023/04/19 19:21:31;;;;;;;4.53;1.85;;;;;;;8.36;56.44;102550.88;10163560;29;20043;-77
2023/04/19 19:26:31;;;;;;;5.38;2.03;;;;;;;8.21;58.12;102550.97;10180350;29;20039;-77
2023/04/19 19:31:32;;;;;;;3.50;2.13;;;;;;;8.17;60.10;102564.22;10179463;29;20584;-77
2023/04/19 19:36:32;;;;;;;6.15;1.95;;;;;;;7.95;61.12;102559.78;10160168;29;20051;-78
2023/04/19 19:41:33;;;;;;;5.50;2.20;;;;;;;7.89;60.70;102564.97;10164915;29;20066;-74
2023/04/19 19:46:33;;;;;;;3.13;1.92;;;;;;;7.76;61.33;102556.63;10179268;29;20058;-76
2023/04/19 19:51:34;;;;;;;4.60;1.98;;;;;;;7.72;61.16;102558.06;10139152;29;20373;-77
2023/04/19 19:56:35;;;;;;;4.28;1.80;;;;;;;7.65;60.87;102568.97;10194890;29;20103;-77
2023/04/19 20:01:35;;;;;;;3.08;1.83;;;;;;;7.61;63.83;102575.03;10173047;29;20068;-77
2023/04/19 20:06:36;;;;;;;7.10;2.22;;;;;;;7.44;63.83;102560.66;10169807;29;20040;-77
2023/04/19 20:11:36;;;;;;;2.88;1.98;;;;;;;7.31;65.27;102558.63;10163493;29;20115;-77
2023/04/19 20:16:37;;;;;;;5.47;1.88;;;;;;;7.41;64.87;102564.66;10163967;29;25007;-78
2023/04/19 20:21:37;;;;;;;6.50;2.17;;;;;;;7.30;66.60;102584.34;10178795;29;20040;-78
2023/04/19 20:26:38;;;;;;;5.90;1.92;;;;;;;7.06;65.50;102536.19;10163609;29;20119;-77
2023/04/19 20:31:40;;;;;;;4.13;2.30;;;;;;;7.15;66.64;102553.34;10146476;29;20186;-77
2023/04/19 20:36:41;;;;;;;3.30;1.75;;;;;;;6.26;66.78;102407.28;10162418;29;20078;-77
2023/04/19 20:41:44;;;;;;;1.95;1.23;;;;;;;7.26;67.76;102566.59;10146290;29;20044;-78
2023/04/19 20:46:44;;;;;;;3.67;2.15;;;;;;;7.28;67.98;102556.28;10177329;29;20043;-76
2023/04/19 20:51:47;;;;;;;7.05;1.70;;;;;;;7.38;69.91;102565.06;10162189;29;20098;-77
2023/04/19 20:56:47;;;;;;;3.80;2.05;;;;;;;7.40;71.77;102573.06;10192730;29;20032;-77
2023/04/19 21:01:48;;;;;;;2.97;2.10;;;;;;;7.30;74.65;102567.91;10207155;29;20108;-76
2023/04/19 21:06:48;;;;;;;5.88;2.33;;;;;;;7.30;77.38;102567.91;10159574;29;20048;-76
2023/04/19 21:11:49;;;;;;;8.57;1.92;;;;;;;7.30;79.07;102569.75;10162041;29;20039;-76
2023/04/19 21:16:49;;;;;;;3.65;2.08;;;;;;;7.28;81.83;102556.28;10161489;29;20063;-76
2023/04/19 21:21:50;;;;;;;3.35;1.90;;;;;;;7.32;83.27;102571.28;10161469;29;20048;-76
2023/04/19 21:26:50;;;;;;;6.20;3.05;;;;;;;7.28;84.29;102564.50;10176490;29;20055;-77
2023/04/19 21:31:51;;;;;;;4.97;1.98;;;;;;;7.23;84.56;102556.81;10160345;29;20039;-77
2023/04/19 21:36:52;;;;;;;3.35;2.17;;;;;;;7.20;85.83;102538.06;10175811;29;20044;-77
2023/04/19 21:41:52;;;;;;;4.25;2.00;;;;;;;7.25;88.12;102542.94;10159421;29;20044;-78
2023/04/19 21:46:53;;;;;;;9.73;2.30;;;;;;;7.12;86.35;102509.91;10191379;29;20145;-71
2023/04/19 21:51:55;;;;;;;3.70;2.50;;;;;;;7.22;87.52;102535.97;10207933;29;20435;-77
2023/04/19 21:56:56;;;;;;;3.35;1.90;;;;;;;7.35;87.22;102532.53;10171884;29;20040;-77
2023/04/19 22:01:57;;;;;;;5.07;2.72;;;;;;;7.40;87.00;102521.00;10175148;29;20513;-75
2023/04/19 22:07:00;;;;;;;4.22;2.00;;;;;;;7.42;86.96;102519.78;10159164;29;20060;-75
2023/04/19 22:12:02;;;;;;;3.45;2.22;;;;;;;7.37;89.15;102519.50;10159847;29;20492;-76
2023/04/19 22:17:03;;;;;;;7.28;3.47;;;;;;;7.30;92.95;102532.28;10132373;29;20386;-75
2023/04/19 22:22:04;;;;;;;4.30;2.40;;;;;;;7.02;95.92;102483.66;10149516;29;20047;-76
2023/04/19 22:27:05;;;;;;;7.05;3.15;;;;;;;7.20;100.00;102507.91;10149552;29;20055;-75
2023/04/19 22:32:05;;;;;;;5.35;2.92;;;;;;;7.16;100.00;102508.50;10151205;29;20084;-76
2023/04/19 22:37:06;;;;;;;5.43;2.28;;;;;;;7.21;100.00;102492.31;10155623;29;20510;-75
2023/04/19 22:42:06;;;;;;;4.13;2.70;;;;;;;7.36;100.00;102490.41;10161802;29;20044;-76
2023/04/19 22:47:07;;;;;;;4.50;2.97;;;;;;;7.53;100.00;102476.47;10154465;29;20388;-73
2023/04/19 22:52:07;;;;;;;5.80;2.45;;;;;;;7.60;100.00;102474.63;10177068;29;20036;-75
2023/04/19 22:57:09;;;;;;;5.70;2.38;;;;;;;7.65;100.00;102467.53;10158419;29;20103;-75
2023/04/19 23:02:09;;;;;;;5.65;2.20;;;;;;;7.62;100.00;102467.06;10146164;29;20044;-76
2023/04/19 23:07:10;;;;;;;6.80;2.72;;;;;;;7.71;100.00;102465.91;10181239;29;20062;-75
2023/04/19 23:12:14;;;;;;;6.63;2.80;;;;;;;7.74;100.00;102449.03;10181174;29;20495;-75